Time;durP1;ratioP1;P1;durP2;ratioP2;P2;SDS_P1;SDS_P2;PMS_P1;PMS_P2;Temp;Humidity;BMP_temperature;BMP_pressure;BME280_temperature;BME280_humidity;BME280_pressure;Samples;Min_cycle;Max_cycle;Signal;HPM_P1;HPM_P2
2022/07/18 00:02:18;;;;;;;4.30;2.42;;;18.50;61.30;;;;;;2344666;57;21059;-73
2022/07/18 00:04:46;;;;;;;2.87;1.90;;;18.50;61.00;;;;;;2345394;57;21101;-75
2022/07/18 00:07:14;;;;;;;5.65;2.22;;;18.40;61.00;;;;;;2344862;57;21053;-75
2022/07/18 00:09:42;;;;;;;3.00;2.20;;;18.40;61.20;;;;;;2345462;57;22169;-73
2022/07/18 00:12:11;;;;;;;3.90;1.92;;;18.40;61.30;;;;;;2344780;57;21038;-75
2022/07/18 00:14:39;;;;;;;2.87;2.28;;;18.40;61.60;;;;;;2346037;57;21045;-75
2022/07/18 00:17:07;;;;;;;3.28;2.20;;;18.40;61.40;;;;;;2344830;57;21648;-73
2022/07/18 00:19:35;;;;;;;2.83;2.00;;;18.40;61.40;;;;;;2345297;57;21073;-75
2022/07/18 00:22:04;;;;;;;4.28;2.10;;;18.40;61.30;;;;;;2592836;52;21105;-75
2022/07/18 00:24:32;;;;;;;2.72;1.90;;;18.40;61.40;;;;;;2345774;57;21053;-75
2022/07/18 00:26:59;;;;;;;3.33;1.83;;;18.40;61.60;;;;;;2345262;57;21037;-75
2022/07/18 00:29:27;;;;;;;4.40;2.35;;;18.40;61.60;;;;;;2344899;57;21030;-74
2022/07/18 00:31:54;;;;;;;5.12;2.40;;;18.40;61.80;;;;;;2591251;52;21679;-74
2022/07/18 00:34:22;;;;;;;3.60;2.20;;;18.30;62.00;;;;;;2343882;57;21047;-75
2022/07/18 00:36:49;;;;;;;7.35;2.58;;;18.30;62.10;;;;;;2344051;57;21038;-74
2022/07/18 00:39:16;;;;;;;3.62;2.28;;;18.30;62.30;;;;;;2344875;57;21136;-75
2022/07/18 00:41:47;;;;;;;7.90;2.30;;;18.30;63.20;;;;;;2344458;57;21527;-75
2022/07/18 00:44:18;;;;;;;3.80;1.98;;;18.30;62.80;;;;;;2344825;57;21066;-75
2022/07/18 00:46:46;;;;;;;4.75;2.53;;;18.20;63.20;;;;;;2344211;57;21283;-75
2022/07/18 00:49:13;;;;;;;2.33;2.12;;;18.20;62.90;;;;;;2343904;57;21397;-75
2022/07/18 00:51:41;;;;;;;2.28;2.00;;;18.20;63.10;;;;;;2345276;57;21544;-76
2022/07/18 00:54:09;;;;;;;2.87;2.22;;;18.20;63.20;;;;;;2590713;53;21559;-75
2022/07/18 00:56:36;;;;;;;3.05;2.20;;;18.20;63.20;;;;;;2591813;53;21045;-74
2022/07/18 00:59:03;;;;;;;2.70;2.00;;;18.20;63.20;;;;;;2343705;57;21164;-75
2022/07/18 01:01:43;;;;;;;3.17;2.10;;;18.20;63.10;;;;;;2344600;57;21097;-75
2022/07/18 01:04:12;;;;;;;5.53;2.35;;;18.20;63.00;;;;;;2343905;57;21042;-76
2022/07/18 01:06:40;;;;;;;3.85;2.47;;;18.20;62.90;;;;;;2591954;53;21030;-76
2022/07/18 01:09:08;;;;;;;3.12;2.50;;;18.20;62.80;;;;;;2344485;57;21524;-75
2022/07/18 01:11:36;;;;;;;2.55;2.00;;;18.20;62.90;;;;;;2344725;57;21038;-76
2022/07/18 01:14:04;;;;;;;2.75;2.10;;;18.10;62.90;;;;;;2592024;53;22087;-76
2022/07/18 01:16:32;;;;;;;5.05;2.03;;;18.10;62.20;;;;;;2343371;57;21057;-75
2022/07/18 01:18:59;;;;;;;4.50;2.17;;;18.10;63.00;;;;;;2343083;57;21066;-76
2022/07/18 01:21:27;;;;;;;3.22;2.00;;;18.10;62.90;;;;;;2345342;57;21040;-76
2022/07/18 01:23:54;;;;;;;4.25;2.20;;;18.10;63.00;;;;;;2590740;53;21144;-75
2022/07/18 01:26:22;;;;;;;3.12;2.08;;;18.10;63.00;;;;;;2591689;53;21568;-76
2022/07/18 01:28:49;;;;;;;2.55;2.22;;;18.00;63.10;;;;;;2591772;53;21041;-75
2022/07/18 01:31:16;;;;;;;3.55;2.15;;;18.00;63.20;;;;;;2344919;57;21050;-73
2022/07/18 01:33:44;;;;;;;3.58;2.17;;;18.00;63.20;;;;;;2344918;57;21097;-76
2022/07/18 01:36:11;;;;;;;3.78;2.30;;;18.00;63.20;;;;;;2342430;57;21199;-76
2022/07/18 01:38:39;;;;;;;2.60;2.03;;;17.90;63.40;;;;;;2344010;57;21141;-74
2022/07/18 01:41:06;;;;;;;3.55;2.17;;;17.90;63.50;;;;;;2591987;53;21057;-76
2022/07/18 01:43:37;;;;;;;2.28;2.08;;;17.90;63.30;;;;;;2591751;53;21045;-76
2022/07/18 01:46:05;;;;;;;4.50;2.62;;;17.90;64.00;;;;;;2344155;57;22217;-76
2022/07/18 01:48:33;;;;;;;4.60;2.28;;;17.80;63.40;;;;;;2343925;57;21105;-76
2022/07/18 01:51:00;;;;;;;2.97;2.35;;;17.80;63.60;;;;;;2591564;52;21041;-76
2022/07/18 01:53:27;;;;;;;4.75;2.50;;;17.80;63.80;;;;;;2344758;57;21620;-75
2022/07/18 01:55:55;;;;;;;3.50;2.60;;;17.70;63.70;;;;;;2343680;57;21030;-73
2022/07/18 01:58:22;;;;;;;2.97;2.22;;;17.70;63.90;;;;;;2591601;53;21132;-75
2022/07/18 02:00:49;;;;;;;3.87;2.00;;;17.70;64.00;;;;;;2344549;57;21050;-76
2022/07/18 02:03:17;;;;;;;2.55;2.08;;;17.70;64.10;;;;;;2344551;57;21556;-76
2022/07/18 02:05:44;;;;;;;3.17;2.33;;;17.70;64.10;;;;;;2343271;57;21090;-77
2022/07/18 02:08:12;;;;;;;3.65;2.47;;;17.70;64.30;;;;;;2344464;57;21109;-76
2022/07/18 02:10:39;;;;;;;4.85;2.10;;;17.70;64.10;;;;;;2344518;57;21050;-75
2022/07/18 02:13:07;;;;;;;4.93;2.85;;;17.70;64.20;;;;;;2591678;53;21026;-76
2022/07/18 02:15:34;;;;;;;3.20;2.00;;;17.70;64.40;;;;;;2343877;57;21053;-76
2022/07/18 02:18:01;;;;;;;3.90;2.30;;;17.70;64.50;;;;;;2344579;57;21196;-74
2022/07/18 02:20:29;;;;;;;2.95;2.30;;;17.60;64.70;;;;;;2591143;52;21050;-76
2022/07/18 02:22:56;;;;;;;3.00;2.22;;;17.70;64.70;;;;;;2344070;57;21133;-76
2022/07/18 02:25:24;;;;;;;3.60;2.67;;;17.60;64.70;;;;;;2343916;57;21053;-74
2022/07/18 02:27:51;;;;;;;3.53;1.87;;;17.60;64.60;;;;;;2344756;57;21054;-76
2022/07/18 02:30:18;;;;;;;2.05;1.77;;;17.60;64.60;;;;;;2344468;57;21104;-76
2022/07/18 02:32:46;;;;;;;3.10;2.08;;;17.60;64.80;;;;;;2344931;57;21535;-76
2022/07/18 02:35:13;;;;;;;5.95;2.25;;;17.60;64.80;;;;;;2590594;53;21900;-76
2022/07/18 02:37:41;;;;;;;4.20;2.83;;;17.60;64.90;;;;;;2590368;53;21057;-73
2022/07/18 02:40:11;;;;;;;3.40;2.10;;;17.60;64.90;;;;;;2591143;53;21061;-74
2022/07/18 02:42:38;;;;;;;5.47;2.80;;;17.60;64.90;;;;;;2344240;57;21093;-76
2022/07/18 02:45:08;;;;;;;3.83;2.28;;;17.60;64.90;;;;;;2591162;53;21070;-75
2022/07/18 02:47:35;;;;;;;3.62;2.42;;;17.60;64.90;;;;;;2343887;57;21037;-75
2022/07/18 02:50:02;;;;;;;3.90;2.55;;;17.60;64.90;;;;;;2590911;52;21074;-76
2022/07/18 02:52:30;;;;;;;3.15;2.05;;;17.60;64.90;;;;;;2344223;57;21104;-76
2022/07/18 02:55:00;;;;;;;2.95;2.30;;;17.60;65.00;;;;;;2344667;57;21559;-76
2022/07/18 02:57:27;;;;;;;3.28;2.62;;;17.60;65.10;;;;;;2344434;57;21045;-76
2022/07/18 02:59:55;;;;;;;3.42;2.30;;;17.60;64.90;;;;;;2344606;57;21769;-74
2022/07/18 03:02:22;;;;;;;7.85;2.62;;;17.60;64.90;;;;;;2343938;57;21053;-73
2022/07/18 03:04:50;;;;;;;3.60;2.97;;;17.70;65.00;;;;;;2592205;53;21118;-76
2022/07/18 03:07:17;;;;;;;3.62;2.40;;;17.70;65.00;;;;;;2344075;57;21053;-76
2022/07/18 03:09:45;;;;;;;4.60;3.15;;;17.70;65.10;;;;;;2345192;57;21470;-74
2022/07/18 03:12:12;;;;;;;5.18;3.15;;;17.70;65.00;;;;;;2343895;57;21583;-76
2022/07/18 03:14:39;;;;;;;4.07;2.35;;;17.70;65.00;;;;;;2590934;53;21564;-76
2022/07/18 03:17:07;;;;;;;4.50;2.90;;;17.70;65.00;;;;;;2589505;53;21114;-75
2022/07/18 03:19:35;;;;;;;5.95;2.65;;;17.70;64.80;;;;;;2590082;53;21061;-76
2022/07/18 03:22:03;;;;;;;5.03;3.12;;;17.70;64.60;;;;;;2344169;57;21061;-76
2022/07/18 03:24:30;;;;;;;3.67;2.47;;;17.70;64.70;;;;;;2344772;57;21053;-76
2022/07/18 03:26:58;;;;;;;3.78;2.97;;;17.70;64.60;;;;;;2344337;57;21552;-75
2022/07/18 03:29:25;;;;;;;3.50;2.65;;;17.80;64.70;;;;;;2590361;53;21018;-76
2022/07/18 03:31:53;;;;;;;4.00;3.28;;;17.80;64.50;;;;;;2344286;57;21053;-76
2022/07/18 03:34:20;;;;;;;4.72;3.10;;;17.80;64.30;;;;;;2344776;57;21117;-75
2022/07/18 03:36:48;;;;;;;4.12;3.05;;;17.80;64.40;;;;;;2344544;57;21057;-77
2022/07/18 03:39:15;;;;;;;3.92;3.08;;;17.80;64.20;;;;;;2345487;57;21074;-76
2022/07/18 03:41:43;;;;;;;5.85;3.78;;;17.80;64.20;;;;;;2344722;57;21644;-75
2022/07/18 03:44:10;;;;;;;4.03;3.17;;;17.80;64.40;;;;;;2344790;57;21121;-76
2022/07/18 03:46:37;;;;;;;4.97;3.22;;;17.80;64.60;;;;;;2343923;57;21038;-76
2022/07/18 03:49:05;;;;;;;4.03;3.03;;;17.90;64.70;;;;;;2591359;53;21041;-76
2022/07/18 03:51:32;;;;;;;4.40;2.83;;;17.90;64.80;;;;;;2345139;57;21122;-76
2022/07/18 03:53:59;;;;;;;4.37;2.95;;;17.90;65.00;;;;;;2344080;57;21046;-74
2022/07/18 03:56:27;;;;;;;6.40;3.15;;;17.90;65.10;;;;;;2344253;57;21042;-76
2022/07/18 03:58:54;;;;;;;3.40;2.65;;;17.90;65.10;;;;;;2344547;57;21045;-76
2022/07/18 04:01:21;;;;;;;4.07;2.92;;;17.90;65.00;;;;;;2344215;57;21077;-76
2022/07/18 04:03:49;;;;;;;5.22;3.28;;;17.90;64.90;;;;;;2591783;53;21088;-75
2022/07/18 04:06:16;;;;;;;5.18;3.50;;;18.00;64.90;;;;;;2344708;57;21116;-75
2022/07/18 04:08:43;;;;;;;5.15;3.15;;;18.00;64.80;;;;;;2591428;53;21100;-76
2022/07/18 04:11:11;;;;;;;6.22;2.92;;;18.00;64.80;;;;;;2344756;57;21109;-76
2022/07/18 04:13:38;;;;;;;7.32;3.10;;;18.10;65.00;;;;;;2591707;53;21117;-77
2022/07/18 04:16:06;;;;;;;3.70;2.95;;;18.10;64.90;;;;;;2590696;53;21548;-76
2022/07/18 04:18:34;;;;;;;5.87;3.00;;;18.10;64.90;;;;;;2591747;53;21048;-76
2022/07/18 04:21:01;;;;;;;4.90;3.10;;;18.20;64.80;;;;;;2345096;57;21041;-74
2022/07/18 04:23:30;;;;;;;6.20;3.40;;;18.20;65.00;;;;;;2345260;57;21065;-76
2022/07/18 04:25:58;;;;;;;4.12;3.15;;;18.20;64.80;;;;;;2343759;57;21595;-76
2022/07/18 04:28:25;;;;;;;5.60;3.42;;;18.20;64.60;;;;;;2591680;53;21081;-75
2022/07/18 04:30:53;;;;;;;3.60;2.60;;;18.30;64.80;;;;;;2345053;57;21045;-76
2022/07/18 04:33:20;;;;;;;4.10;2.62;;;18.30;64.80;;;;;;2344828;57;21109;-74
2022/07/18 04:35:48;;;;;;;4.00;2.87;;;18.30;64.70;;;;;;2344138;57;21563;-76
2022/07/18 04:38:16;;;;;;;3.40;2.80;;;18.40;64.70;;;;;;2345392;57;21627;-77
2022/07/18 04:40:44;;;;;;;4.50;3.03;;;18.40;64.70;;;;;;2345178;57;21058;-76
2022/07/18 04:43:12;;;;;;;6.20;2.67;;;18.40;64.20;;;;;;2345696;57;21101;-76
2022/07/18 04:45:39;;;;;;;4.82;3.10;;;18.50;64.80;;;;;;2343446;57;21153;-74
2022/07/18 04:48:07;;;;;;;5.35;3.03;;;18.50;64.30;;;;;;2567023;52;21052;-78
2022/07/18 04:50:35;;;;;;;4.28;3.05;;;18.50;64.00;;;;;;2361585;57;21046;-78
2022/07/18 04:53:03;;;;;;;3.85;2.97;;;18.50;64.00;;;;;;2363804;57;21030;-78
2022/07/18 04:55:30;;;;;;;4.15;2.90;;;18.50;64.10;;;;;;2363887;57;21045;-78
2022/07/18 04:57:58;;;;;;;4.65;3.20;;;18.60;64.00;;;;;;2363966;57;21108;-78
2022/07/18 05:00:26;;;;;;;7.32;2.62;;;18.60;64.20;;;;;;2363663;57;21065;-78
2022/07/18 05:02:56;;;;;;;5.30;3.00;;;18.60;64.00;;;;;;2363623;57;21071;-78
2022/07/18 05:05:26;;;;;;;3.67;2.47;;;18.60;64.10;;;;;;2362845;57;21077;-78
2022/07/18 05:07:53;;;;;;;3.40;2.78;;;18.60;63.70;;;;;;2364824;57;21093;-78
2022/07/18 05:10:23;;;;;;;5.97;3.05;;;18.70;63.80;;;;;;2363845;56;21196;-78
2022/07/18 05:12:52;;;;;;;4.65;2.72;;;18.70;64.10;;;;;;2365216;57;21101;-78
2022/07/18 05:15:21;;;;;;;3.30;2.53;;;18.80;64.20;;;;;;2364066;57;21042;-77
2022/07/18 05:17:48;;;;;;;5.00;2.95;;;18.80;64.20;;;;;;2363654;57;21092;-78
2022/07/18 05:20:17;;;;;;;3.83;2.75;;;18.90;64.10;;;;;;2363622;57;21565;-78
2022/07/18 05:22:45;;;;;;;4.18;2.42;;;18.90;64.00;;;;;;2364317;56;21040;-78
2022/07/18 05:25:14;;;;;;;4.03;2.95;;;18.90;64.00;;;;;;2364052;57;21093;-78
2022/07/18 05:27:42;;;;;;;6.00;2.92;;;19.00;64.10;;;;;;2363770;57;21048;-78
2022/07/18 05:30:12;;;;;;;5.70;3.00;;;19.10;64.00;;;;;;2362726;57;21038;-78
2022/07/18 05:32:40;;;;;;;3.47;2.45;;;19.10;63.80;;;;;;2363407;57;21037;-78
2022/07/18 05:35:09;;;;;;;5.72;2.87;;;19.20;63.80;;;;;;2614467;53;21094;-77
2022/07/18 05:37:37;;;;;;;4.50;2.72;;;19.30;63.70;;;;;;2614633;53;21025;-78
2022/07/18 05:40:08;;;;;;;4.10;2.75;;;19.30;63.50;;;;;;2364017;57;21049;-78
2022/07/18 05:42:36;;;;;;;5.28;3.03;;;19.40;62.90;;;;;;2364032;56;21119;-78
2022/07/18 05:45:05;;;;;;;3.70;2.87;;;19.50;62.90;;;;;;2363119;56;21109;-78
2022/07/18 05:47:32;;;;;;;4.45;2.72;;;19.50;62.60;;;;;;2371086;56;21110;-78
2022/07/18 05:50:00;;;;;;;4.30;3.03;;;19.60;62.40;;;;;;2380542;56;21075;-78
2022/07/18 05:52:27;;;;;;;5.40;2.83;;;19.50;62.40;;;;;;2381508;56;21054;-78
2022/07/18 05:54:55;;;;;;;5.78;3.22;;;19.60;62.20;;;;;;2380906;56;21058;-77
2022/07/18 05:57:22;;;;;;;9.18;3.95;;;19.60;61.90;;;;;;2378651;56;21608;-77
2022/07/18 05:59:49;;;;;;;3.95;2.87;;;19.70;62.10;;;;;;2380475;56;21042;-77
2022/07/18 06:02:17;;;;;;;4.07;3.20;;;19.70;61.90;;;;;;2380635;56;21046;-77
2022/07/18 06:04:44;;;;;;;8.55;3.30;;;19.80;61.70;;;;;;2380665;56;21031;-77
2022/07/18 06:07:12;;;;;;;6.60;3.55;;;19.90;61.50;;;;;;2380496;56;21126;-78
2022/07/18 06:09:39;;;;;;;3.87;3.05;;;19.90;60.80;;;;;;2380478;56;21093;-78
2022/07/18 06:12:08;;;;;;;4.85;2.95;;;19.90;60.20;;;;;;2380031;56;21620;-78
2022/07/18 06:14:36;;;;;;;6.12;3.08;;;19.90;61.00;;;;;;2380547;56;21102;-78
2022/07/18 06:17:03;;;;;;;6.22;3.17;;;20.00;61.10;;;;;;2378628;56;21082;-77
2022/07/18 06:19:31;;;;;;;5.93;3.08;;;20.00;61.00;;;;;;2377113;56;21046;-76
2022/07/18 06:21:59;;;;;;;5.87;3.25;;;20.10;61.30;;;;;;2379695;56;21098;-76
2022/07/18 06:24:27;;;;;;;5.47;3.03;;;20.10;61.40;;;;;;2380338;56;21197;-77
2022/07/18 06:26:54;;;;;;;4.07;2.95;;;20.20;61.20;;;;;;2379879;56;21046;-78
2022/07/18 06:29:21;;;;;;;5.18;3.40;;;20.20;60.90;;;;;;2380045;56;21111;-78
2022/07/18 06:31:48;;;;;;;4.97;3.10;;;20.30;60.50;;;;;;2634455;52;21027;-78
2022/07/18 06:34:16;;;;;;;6.47;3.28;;;20.30;60.20;;;;;;2380571;56;21182;-77
2022/07/18 06:36:43;;;;;;;6.20;3.20;;;20.30;59.80;;;;;;2380461;56;21035;-78
2022/07/18 06:39:11;;;;;;;5.55;3.33;;;20.40;59.70;;;;;;2380465;56;21118;-78
2022/07/18 06:41:39;;;;;;;7.47;3.35;;;20.40;59.50;;;;;;2380727;56;21703;-77
2022/07/18 06:44:06;;;;;;;6.22;3.08;;;20.40;59.20;;;;;;2379904;56;21082;-77
2022/07/18 06:46:36;;;;;;;4.82;3.62;;;20.50;58.70;;;;;;2378361;56;21083;-78
2022/07/18 06:49:03;;;;;;;5.75;3.45;;;20.50;58.50;;;;;;2378508;56;21034;-77
2022/07/18 06:51:31;;;;;;;5.32;3.65;;;20.50;58.30;;;;;;2379354;56;21635;-80
2022/07/18 06:53:58;;;;;;;6.40;4.45;;;20.50;58.10;;;;;;2380526;56;21034;-79
2022/07/18 06:56:26;;;;;;;5.65;3.62;;;20.60;57.20;;;;;;2379595;56;21065;-78
2022/07/18 06:58:53;;;;;;;8.05;4.20;;;20.60;56.60;;;;;;2379956;56;21121;-77
2022/07/18 07:01:22;;;;;;;7.30;4.03;;;20.70;56.30;;;;;;2379651;56;21059;-78
2022/07/18 07:03:49;;;;;;;6.68;4.05;;;20.70;55.80;;;;;;2378428;56;21205;-76
2022/07/18 07:06:17;;;;;;;7.90;4.20;;;20.70;55.70;;;;;;2378712;56;22005;-78
2022/07/18 07:08:44;;;;;;;8.77;4.53;;;20.80;55.80;;;;;;2379367;56;21625;-78
2022/07/18 07:11:11;;;;;;;7.57;4.82;;;20.80;55.00;;;;;;2381330;56;21042;-80
2022/07/18 07:13:39;;;;;;;7.70;4.68;;;20.80;55.10;;;;;;2380440;56;21042;-77
2022/07/18 07:16:06;;;;;;;8.40;4.22;;;20.80;54.90;;;;;;2379370;56;21129;-78
2022/07/18 07:18:34;;;;;;;7.72;4.90;;;20.90;55.00;;;;;;2379146;56;21066;-78
2022/07/18 07:24:32;;;;;;;8.00;5.45;;;21.00;54.60;;;;;;2601099;52;20931;-75
2022/07/18 07:27:00;;;;;;;7.30;4.80;;;21.10;54.20;;;;;;2378964;56;21118;-78
2022/07/18 07:29:27;;;;;;;7.70;4.93;;;21.20;54.50;;;;;;2380207;56;21027;-77
2022/07/18 07:31:55;;;;;;;9.93;5.43;;;21.30;54.80;;;;;;2380063;56;21054;-77
2022/07/18 07:36:58;;;;;;;8.50;5.07;;;21.40;53.10;;;;;;2355093;57;22070;-77
2022/07/18 07:39:25;;;;;;;9.95;5.22;;;21.50;53.00;;;;;;2346881;57;21038;-77
2022/07/18 07:41:53;;;;;;;7.10;4.82;;;21.60;52.80;;;;;;2625585;52;21058;-78
2022/07/18 07:44:20;;;;;;;7.22;5.12;;;21.60;52.90;;;;;;2627911;52;21526;-77
2022/07/18 07:46:47;;;;;;;7.30;4.82;;;21.70;52.80;;;;;;2373900;56;21102;-77
2022/07/18 07:49:15;;;;;;;8.80;5.85;;;21.80;52.20;;;;;;2373427;56;22877;-77
2022/07/18 07:51:42;;;;;;;10.48;5.40;;;21.80;52.60;;;;;;2374573;56;21059;-77
2022/07/18 07:54:10;;;;;;;9.57;5.53;;;21.90;52.30;;;;;;2628900;52;21102;-77
2022/07/18 07:56:37;;;;;;;6.95;4.90;;;22.00;51.60;;;;;;2374811;56;21609;-77
2022/07/18 07:59:04;;;;;;;6.90;4.47;;;22.00;51.90;;;;;;2375078;56;21063;-77
2022/07/18 08:01:31;;;;;;;8.80;4.90;;;22.10;52.10;;;;;;2374115;56;21708;-77
2022/07/18 08:03:59;;;;;;;6.85;4.45;;;22.10;52.30;;;;;;2374026;56;21533;-77
2022/07/18 08:06:26;;;;;;;8.93;5.05;;;22.20;52.00;;;;;;2373056;56;21138;-77
2022/07/18 08:08:54;;;;;;;8.07;4.32;;;22.20;52.60;;;;;;2373944;56;21138;-77
2022/07/18 08:11:21;;;;;;;5.68;4.20;;;22.30;52.40;;;;;;2373234;56;21051;-77
2022/07/18 08:13:48;;;;;;;6.18;4.57;;;22.40;52.10;;;;;;2374399;56;21034;-77
2022/07/18 08:16:16;;;;;;;6.15;4.18;;;22.40;51.80;;;;;;2374121;56;21545;-77
2022/07/18 08:18:43;;;;;;;7.45;4.07;;;22.50;51.80;;;;;;2374347;56;21114;-77
2022/07/18 08:21:11;;;;;;;11.75;4.75;;;22.60;52.30;;;;;;2374247;56;21039;-77
2022/07/18 08:23:38;;;;;;;6.82;4.65;;;22.70;52.80;;;;;;2373637;56;21059;-78
2022/07/18 08:26:05;;;;;;;9.75;4.45;;;22.70;53.10;;;;;;2372941;56;21040;-77
2022/07/18 08:28:33;;;;;;;5.12;4.12;;;22.80;52.40;;;;;;2373966;56;21126;-77
2022/07/18 08:31:00;;;;;;;7.32;4.53;;;22.80;52.10;;;;;;2374139;56;21050;-76
2022/07/18 08:33:27;;;;;;;5.87;4.30;;;22.90;51.80;;;;;;2373654;56;21549;-77
2022/07/18 08:35:55;;;;;;;7.70;3.92;;;22.90;51.70;;;;;;2626188;52;21111;-77
2022/07/18 08:38:22;;;;;;;6.50;4.40;;;23.00;51.70;;;;;;2373404;56;21054;-78
2022/07/18 08:40:53;;;;;;;6.12;4.30;;;23.00;51.70;;;;;;2374098;56;21549;-78
2022/07/18 08:46:01;;;;;;;5.65;4.07;;;23.10;51.60;;;;;;2353718;57;22129;-78
2022/07/18 08:48:29;;;;;;;7.75;4.70;;;23.10;51.40;;;;;;2347324;57;21388;-77
2022/07/18 08:50:56;;;;;;;8.15;4.82;;;23.20;51.20;;;;;;2360299;56;21134;-77
2022/07/18 08:53:24;;;;;;;6.93;4.68;;;23.20;51.70;;;;;;2374125;56;21102;-77
2022/07/18 08:55:52;;;;;;;7.05;4.22;;;23.30;51.10;;;;;;2373451;56;21174;-77
2022/07/18 08:58:19;;;;;;;5.78;4.28;;;23.30;52.20;;;;;;2374867;56;21366;-76
2022/07/18 09:00:47;;;;;;;5.68;4.00;;;23.40;50.80;;;;;;2374131;56;21047;-77
2022/07/18 09:03:14;;;;;;;6.07;4.43;;;23.40;50.30;;;;;;2374562;56;21031;-77
2022/07/18 09:05:42;;;;;;;5.78;3.85;;;23.50;50.40;;;;;;2373714;56;21134;-76
2022/07/18 09:08:11;;;;;;;4.95;3.80;;;23.50;51.00;;;;;;2374281;56;21027;-77
2022/07/18 09:10:52;;;;;;;5.85;4.25;;;23.60;51.40;;;;;;2374067;56;21094;-77
2022/07/18 09:13:22;;;;;;;8.23;4.07;;;23.70;51.30;;;;;;2374183;56;21839;-76
2022/07/18 09:16:00;;;;;;;6.87;4.78;;;23.70;49.80;;;;;;2373865;56;21110;-77
2022/07/18 09:18:29;;;;;;;7.03;4.07;;;23.80;50.00;;;;;;2374665;56;21031;-76
2022/07/18 09:21:00;;;;;;;5.43;4.00;;;23.80;50.70;;;;;;2373348;56;21525;-77
2022/07/18 09:23:29;;;;;;;5.95;4.20;;;23.90;50.20;;;;;;2374117;56;21126;-77
2022/07/18 09:25:57;;;;;;;8.43;4.07;;;23.90;50.50;;;;;;2373348;56;21035;-75
2022/07/18 09:28:24;;;;;;;6.07;4.47;;;24.00;50.80;;;;;;2374808;56;21533;-76
2022/07/18 09:30:51;;;;;;;6.80;4.32;;;24.10;50.40;;;;;;2627646;52;21058;-76
2022/07/18 09:33:20;;;;;;;5.95;4.00;;;24.20;49.80;;;;;;2374375;56;21090;-76
2022/07/18 09:35:49;;;;;;;7.32;4.90;;;24.20;49.50;;;;;;2372585;56;21142;-75
2022/07/18 09:38:18;;;;;;;7.80;4.55;;;24.30;49.40;;;;;;2373850;56;21023;-76
2022/07/18 09:40:48;;;;;;;7.55;4.15;;;24.40;48.90;;;;;;2374469;56;21034;-76
2022/07/18 09:43:17;;;;;;;7.22;4.55;;;24.40;49.20;;;;;;2374773;56;21411;-76
2022/07/18 09:45:47;;;;;;;6.97;4.93;;;24.40;49.20;;;;;;2374077;56;21106;-76
2022/07/18 09:48:16;;;;;;;6.03;4.37;;;24.50;49.30;;;;;;2373819;56;21321;-77
2022/07/18 09:50:51;;;;;;;6.57;4.60;;;24.50;49.40;;;;;;2374101;56;21541;-77
2022/07/18 09:53:23;;;;;;;7.80;5.10;;;24.50;48.40;;;;;;2374700;56;21102;-76
2022/07/18 09:55:53;;;;;;;7.50;4.60;;;24.60;48.20;;;;;;2373578;56;21106;-77
2022/07/18 09:58:22;;;;;;;8.07;4.62;;;24.60;48.20;;;;;;2373508;56;21043;-77
2022/07/18 10:00:50;;;;;;;7.78;4.60;;;24.70;48.10;;;;;;2373811;56;21055;-77
2022/07/18 10:03:18;;;;;;;7.43;5.35;;;24.70;48.20;;;;;;2372678;56;21086;-77
2022/07/18 10:05:47;;;;;;;9.02;5.53;;;24.80;47.80;;;;;;2353166;56;22294;-77
2022/07/18 10:08:17;;;;;;;9.32;4.70;;;24.90;47.70;;;;;;2373266;56;21810;-77
2022/07/18 10:10:46;;;;;;;6.80;5.05;;;24.90;47.40;;;;;;2373810;56;21122;-77
2022/07/18 10:13:14;;;;;;;8.65;5.22;;;24.90;47.40;;;;;;2373826;56;21031;-77
2022/07/18 10:15:43;;;;;;;8.02;5.05;;;25.00;47.60;;;;;;2626413;52;21043;-77
2022/07/18 10:18:14;;;;;;;6.00;4.72;;;25.00;47.50;;;;;;2373869;56;21043;-77
2022/07/18 10:20:45;;;;;;;8.45;5.35;;;25.10;47.60;;;;;;2372625;56;21113;-77
2022/07/18 10:23:17;;;;;;;9.55;5.57;;;25.10;47.50;;;;;;2373806;56;22097;-77
2022/07/18 10:26:03;;;;;;;7.72;4.70;;;25.20;47.10;;;;;;2373296;56;21560;-78
2022/07/18 10:28:31;;;;;;;8.82;5.40;;;25.20;47.30;;;;;;2373959;56;21103;-77
2022/07/18 10:31:14;;;;;;;12.80;5.00;;;25.30;46.90;;;;;;2373125;56;21051;-77
2022/07/18 10:33:45;;;;;;;6.93;4.87;;;25.30;47.10;;;;;;2373637;56;21047;-77
2022/07/18 10:36:14;;;;;;;8.50;5.40;;;25.30;46.10;;;;;;2373361;56;21147;-77
2022/07/18 10:39:05;;;;;;;7.57;5.25;;;25.30;46.40;;;;;;2373313;56;21098;-77
2022/07/18 10:41:33;;;;;;;7.70;5.18;;;25.40;46.40;;;;;;2372589;56;21114;-77
2022/07/18 10:44:31;;;;;;;6.32;4.68;;;25.40;45.90;;;;;;2372258;56;21137;-77
2022/07/18 10:47:08;;;;;;;9.02;4.55;;;25.50;46.40;;;;;;2362123;55;21117;-75
2022/07/18 10:50:00;;;;;;;8.68;4.75;;;25.50;46.60;;;;;;2300409;58;21074;-76
2022/07/18 10:52:59;;;;;;;8.48;5.93;;;25.60;46.30;;;;;;2275094;59;21041;-75
2022/07/18 10:55:35;;;;;;;8.70;4.70;;;25.70;45.40;;;;;;2274543;59;21064;-75
2022/07/18 10:58:19;;;;;;;8.95;5.45;;;25.80;45.50;;;;;;2506289;55;21080;-75
2022/07/18 11:00:55;;;;;;;7.82;5.45;;;26.00;45.40;;;;;;2273771;59;21088;-75
2022/07/18 11:03:27;;;;;;;8.68;5.68;;;26.10;44.50;;;;;;2272875;59;21160;-75
2022/07/18 11:05:57;;;;;;;9.25;5.18;;;26.10;44.00;;;;;;2274347;59;21156;-75
2022/07/18 11:08:25;;;;;;;7.93;4.90;;;26.20;44.50;;;;;;2275645;59;21204;-76
2022/07/18 11:11:15;;;;;;;7.28;4.87;;;26.30;44.40;;;;;;2275788;59;21598;-76
2022/07/18 11:16:24;;;;;;;7.55;5.25;;;26.40;44.80;;;;;;2353016;57;22070;-75
2022/07/18 11:19:18;;;;;;;6.40;4.93;;;26.60;44.40;;;;;;2345569;57;21109;-75
2022/07/18 11:21:46;;;;;;;;;;;26.60;44.30;;;;;;2373080;56;21086;-75
2022/07/18 11:24:14;;;;;;;5.82;4.15;;;26.60;44.40;;;;;;2373671;56;20101;-74
2022/07/18 11:26:46;;;;;;;11.07;5.22;;;26.80;44.80;;;;;;2371580;56;21095;-75
2022/07/18 11:29:15;;;;;;;6.45;4.70;;;26.80;43.70;;;;;;2373349;56;22115;-75
2022/07/18 11:31:48;;;;;;;7.32;4.95;;;26.90;43.60;;;;;;2371285;56;21128;-74
2022/07/18 11:34:15;;;;;;;6.53;4.60;;;26.90;43.80;;;;;;2372847;56;21121;-75
2022/07/18 11:36:46;;;;;;;8.93;5.30;;;27.00;43.90;;;;;;2373451;56;21063;-75
2022/07/18 11:39:14;;;;;;;7.78;5.00;;;27.10;43.70;;;;;;2627127;52;21533;-75
2022/07/18 11:44:18;;;;;;;7.22;5.30;;;27.10;43.80;;;;;;2333949;57;27846;-75
2022/07/18 11:46:46;;;;;;;8.32;4.50;;;27.50;41.00;;;;;;2345767;57;21163;-76
2022/07/18 11:51:50;;;;;;;8.10;4.95;;;27.50;41.50;;;;;;2354274;57;22106;-76
2022/07/18 11:54:25;;;;;;;8.05;4.78;;;27.60;42.10;;;;;;2345842;57;21115;-76
2022/07/18 11:56:55;;;;;;;7.57;4.70;;;27.60;41.90;;;;;;2344703;57;21200;-76
2022/07/18 11:59:34;;;;;;;8.15;5.22;;;27.70;42.50;;;;;;2346115;57;21582;-76
2022/07/18 12:04:37;;;;;;;7.07;4.95;;;27.70;42.00;;;;;;2305704;57;28401;-76
2022/07/18 12:07:19;;;;;;;7.18;4.80;;;28.10;41.20;;;;;;2343759;57;21073;-76
2022/07/18 12:09:47;;;;;;;8.23;4.80;;;28.00;41.50;;;;;;2591047;52;21157;-76
2022/07/18 12:12:17;;;;;;;8.38;4.97;;;28.00;41.20;;;;;;2345298;57;21029;-76
2022/07/18 12:14:54;;;;;;;6.00;4.07;;;28.10;41.60;;;;;;2344483;57;21053;-75
2022/07/18 12:17:21;;;;;;;5.72;4.15;;;28.10;42.00;;;;;;2590023;53;21037;-76
2022/07/18 12:19:49;;;;;;;7.97;4.70;;;28.20;41.90;;;;;;2343434;57;21170;-76
2022/07/18 12:22:16;;;;;;;8.05;4.35;;;28.20;42.10;;;;;;2343938;57;21524;-76
2022/07/18 12:24:52;;;;;;;7.37;4.45;;;28.30;42.20;;;;;;2591149;53;21057;-76
2022/07/18 12:27:21;;;;;;;9.30;4.28;;;28.40;41.70;;;;;;2343147;57;21062;-76
2022/07/18 12:30:07;;;;;;;6.60;4.20;;;28.40;41.80;;;;;;2343048;57;21596;-74
2022/07/18 12:32:41;;;;;;;7.40;4.20;;;28.50;41.20;;;;;;2345180;57;21093;-74
2022/07/18 12:35:10;;;;;;;8.18;3.85;;;28.50;41.50;;;;;;2343420;57;21037;-75
2022/07/18 12:37:38;;;;;;;10.25;4.32;;;28.60;41.00;;;;;;2344891;57;22136;-74
2022/07/18 12:40:08;;;;;;;7.37;4.62;;;28.60;41.20;;;;;;2344194;57;21085;-77
2022/07/18 12:42:38;;;;;;;6.00;4.55;;;28.60;41.20;;;;;;2343342;57;21049;-74
2022/07/18 12:45:07;;;;;;;7.93;4.62;;;28.70;41.40;;;;;;2344632;57;21057;-75
2022/07/18 12:47:35;;;;;;;7.25;4.20;;;28.90;41.20;;;;;;2344122;57;21073;-74
2022/07/18 12:50:04;;;;;;;4.68;3.80;;;29.10;41.20;;;;;;2343712;57;21941;-74
2022/07/18 12:52:31;;;;;;;6.57;3.58;;;29.20;41.40;;;;;;2344669;57;21054;-75
2022/07/18 12:54:59;;;;;;;6.20;4.00;;;29.40;41.50;;;;;;2343705;57;21512;-75
2022/07/18 12:57:26;;;;;;;5.32;3.75;;;29.40;40.50;;;;;;2592371;53;21109;-75
2022/07/18 12:59:54;;;;;;;5.93;4.15;;;29.60;40.30;;;;;;2344586;57;21125;-74
2022/07/18 13:02:21;;;;;;;7.45;4.07;;;29.70;39.40;;;;;;2342531;57;21026;-74
2022/07/18 13:04:49;;;;;;;6.07;3.42;;;29.90;39.80;;;;;;2589771;53;21044;-73
2022/07/18 13:07:16;;;;;;;4.75;3.72;;;30.00;37.90;;;;;;2343871;57;21121;-74
2022/07/18 13:09:44;;;;;;;5.93;4.00;;;30.10;38.20;;;;;;2345025;57;21593;-75
2022/07/18 13:12:11;;;;;;;4.15;3.20;;;30.10;37.20;;;;;;2592543;53;21188;-75
2022/07/18 13:14:39;;;;;;;4.90;3.65;;;30.20;37.60;;;;;;2344453;57;21045;-75
2022/07/18 13:17:06;;;;;;;6.55;4.03;;;30.30;37.50;;;;;;2343069;57;21050;-74